ISR511 LLBG-LGRP
Flight info
| Callsign | ISR511 |
|---|---|
| Flight time | N/A |
| Altitude | 36000 |
| Route | SUVAS N128 OTHON/N0380F240 N128 FOXLI |
| Aircraft | A320/M-SDE2FGIJ1LORVWY/SB1 |
Departure
| Time | 2026-05-07 11:03 |
|---|---|
| Airport | Ben Gurion International Airport (LLBG) |
Arrival
| Time | N/A |
|---|---|
| Airport | Rhodes International Airport "Diagoras" (LGRP) |
| Time | Latitude | Longitude | Altitude | Speed | Heading |
|---|---|---|---|---|---|
| 2026-05-07 09:50 | 32.00058 | 34.87759 | 120 ft | 0 kts | 120° |
| 2026-05-07 10:12 | 32.00059 | 34.87759 | 120 ft | 0 kts | 120° |
| 2026-05-07 10:14 | 32.00059 | 34.87758 | 120 ft | 0 kts | 120° |
| 2026-05-07 10:46 | 32.00059 | 34.87757 | 120 ft | 0 kts | 120° |
| 2026-05-07 10:50 | 32.00060 | 34.87755 | 117 ft | 3 kts | 120° |
| 2026-05-07 10:50 | 32.00074 | 34.87728 | 120 ft | 4 kts | 121° |
| 2026-05-07 10:51 | 32.00088 | 34.87701 | 120 ft | 4 kts | 117° |
| 2026-05-07 10:51 | 32.00096 | 34.87673 | 120 ft | 4 kts | 78° |
| 2026-05-07 10:51 | 32.00093 | 34.87662 | 120 ft | 2 kts | 32° |
| 2026-05-07 10:55 | 32.00093 | 34.87661 | 120 ft | 0 kts | 32° |
| 2026-05-07 10:56 | 32.00094 | 34.87662 | 120 ft | 1 kts | 32° |
| 2026-05-07 10:57 | 32.00126 | 34.87687 | 120 ft | 10 kts | 33° |
| 2026-05-07 10:57 | 32.00200 | 34.87741 | 118 ft | 14 kts | 31° |
| 2026-05-07 10:57 | 32.00293 | 34.87807 | 119 ft | 17 kts | 31° |
| 2026-05-07 10:57 | 32.00402 | 34.87885 | 118 ft | 19 kts | 32° |
| 2026-05-07 10:58 | 32.00521 | 34.87958 | 118 ft | 15 kts | 357° |
| 2026-05-07 10:58 | 32.00620 | 34.87942 | 118 ft | 17 kts | 28° |
| 2026-05-07 10:58 | 32.00729 | 34.88017 | 117 ft | 19 kts | 33° |
| 2026-05-07 10:58 | 32.00849 | 34.88107 | 118 ft | 22 kts | 31° |
| 2026-05-07 10:59 | 32.00980 | 34.88203 | 118 ft | 22 kts | 31° |
| 2026-05-07 10:59 | 32.01123 | 34.88305 | 120 ft | 25 kts | 31° |
| 2026-05-07 10:59 | 32.01273 | 34.88422 | 117 ft | 27 kts | 39° |
| 2026-05-07 10:59 | 32.01404 | 34.88589 | 116 ft | 29 kts | 56° |
| 2026-05-07 11:00 | 32.01482 | 34.88782 | 118 ft | 26 kts | 73° |
| 2026-05-07 11:00 | 32.01516 | 34.88982 | 120 ft | 23 kts | 79° |
| 2026-05-07 11:00 | 32.01547 | 34.89173 | 120 ft | 23 kts | 79° |
| 2026-05-07 11:00 | 32.01577 | 34.89362 | 119 ft | 23 kts | 79° |
| 2026-05-07 11:01 | 32.01606 | 34.89551 | 116 ft | 21 kts | 80° |
| 2026-05-07 11:01 | 32.01643 | 34.89683 | 117 ft | 12 kts | 32° |
| 2026-05-07 11:01 | 32.01723 | 34.89733 | 119 ft | 15 kts | 28° |
| 2026-05-07 11:01 | 32.01824 | 34.89768 | 118 ft | 16 kts | 341° |
| 2026-05-07 11:02 | 32.01832 | 34.89647 | 114 ft | 17 kts | 260° |
| 2026-05-07 11:02 | 32.01830 | 34.89633 | 117 ft | 0 kts | 259° |
| 2026-05-07 11:02 | 32.01822 | 34.89581 | 117 ft | 21 kts | 259° |
| 2026-05-07 11:02 | 32.01752 | 34.89125 | 118 ft | 90 kts | 259° |
| 2026-05-07 11:03 | 32.01608 | 34.88185 | 120 ft | 141 kts | 260° |
| 2026-05-07 11:03 | 32.01407 | 34.86884 | 182 ft | 176 kts | 262° |
| 2026-05-07 11:03 | 32.01171 | 34.85485 | 803 ft | 173 kts | 262° |
| 2026-05-07 11:03 | 32.00902 | 34.84094 | 1474 ft | 174 kts | 261° |
| 2026-05-07 11:04 | 32.00616 | 34.82688 | 2125 ft | 183 kts | 259° |
| 2026-05-07 11:04 | 32.00301 | 34.81148 | 2453 ft | 204 kts | 258° |
| 2026-05-07 11:04 | 31.99945 | 34.79425 | 2773 ft | 229 kts | 258° |
| 2026-05-07 11:04 | 31.99550 | 34.77511 | 3172 ft | 253 kts | 257° |
| 2026-05-07 11:05 | 31.99225 | 34.75411 | 3806 ft | 266 kts | 272° |
| 2026-05-07 11:05 | 31.99627 | 34.73281 | 4645 ft | 270 kts | 291° |
| 2026-05-07 11:05 | 32.00274 | 34.71191 | 5547 ft | 273 kts | 291° |
| 2026-05-07 11:05 | 32.00938 | 34.69077 | 6403 ft | 277 kts | 291° |
| 2026-05-07 11:06 | 32.01614 | 34.66931 | 7237 ft | 281 kts | 290° |
| 2026-05-07 11:06 | 32.02302 | 34.64746 | 7810 ft | 287 kts | 290° |
| 2026-05-07 11:06 | 32.02734 | 34.62449 | 8001 ft | 288 kts | 274° |
| 2026-05-07 11:06 | 32.02964 | 34.60103 | 8181 ft | 291 kts | 284° |
| 2026-05-07 11:07 | 32.03516 | 34.57807 | 9044 ft | 291 kts | 285° |
| 2026-05-07 11:07 | 32.04054 | 34.55495 | 9842 ft | 295 kts | 285° |
| 2026-05-07 11:07 | 32.04592 | 34.53128 | 10392 ft | 308 kts | 284° |
| 2026-05-07 11:07 | 32.05167 | 34.50598 | 10607 ft | 330 kts | 284° |
| 2026-05-07 11:08 | 32.05774 | 34.47946 | 11145 ft | 339 kts | 284° |
| 2026-05-07 11:08 | 32.06393 | 34.45257 | 11900 ft | 340 kts | 284° |
| 2026-05-07 11:08 | 32.07016 | 34.42564 | 12687 ft | 340 kts | 284° |
| 2026-05-07 11:08 | 32.07640 | 34.39870 | 13452 ft | 341 kts | 285° |
| 2026-05-07 11:09 | 32.08266 | 34.37172 | 14169 ft | 342 kts | 285° |
| 2026-05-07 11:09 | 32.08894 | 34.34457 | 14832 ft | 345 kts | 285° |
| 2026-05-07 11:09 | 32.09311 | 34.32648 | 15265 ft | 346 kts | 285° |
| 2026-05-07 11:09 | 32.09941 | 34.29906 | 15891 ft | 348 kts | 285° |
| 2026-05-07 11:10 | 32.10577 | 34.27137 | 16505 ft | 350 kts | 285° |
| 2026-05-07 11:10 | 32.11214 | 34.24352 | 17105 ft | 353 kts | 285° |
| 2026-05-07 11:10 | 32.11856 | 34.21547 | 17700 ft | 356 kts | 285° |
| 2026-05-07 11:10 | 32.12503 | 34.18726 | 18280 ft | 358 kts | 285° |
| 2026-05-07 11:11 | 32.13157 | 34.15873 | 18878 ft | 361 kts | 285° |
| 2026-05-07 11:11 | 32.13815 | 34.13007 | 19454 ft | 364 kts | 285° |
| 2026-05-07 11:11 | 32.14476 | 34.10116 | 20045 ft | 366 kts | 285° |
| 2026-05-07 11:11 | 32.15138 | 34.07206 | 20598 ft | 369 kts | 284° |
| 2026-05-07 11:12 | 32.15806 | 34.04263 | 21117 ft | 372 kts | 284° |
| 2026-05-07 11:12 | 32.16498 | 34.01304 | 21635 ft | 376 kts | 288° |
| 2026-05-07 11:12 | 32.17532 | 33.98464 | 22149 ft | 379 kts | 298° |
| 2026-05-07 11:12 | 32.18990 | 33.95854 | 22641 ft | 383 kts | 304° |
| 2026-05-07 11:13 | 32.20547 | 33.93289 | 23133 ft | 386 kts | 304° |
| 2026-05-07 11:13 | 32.22110 | 33.90703 | 23610 ft | 388 kts | 304° |
| 2026-05-07 11:13 | 32.23680 | 33.88097 | 24075 ft | 391 kts | 304° |
| 2026-05-07 11:13 | 32.25257 | 33.85473 | 24517 ft | 393 kts | 304° |
| 2026-05-07 11:14 | 32.26849 | 33.82826 | 24950 ft | 396 kts | 304° |
| 2026-05-07 11:14 | 32.28448 | 33.80168 | 25375 ft | 398 kts | 304° |
| 2026-05-07 11:14 | 32.30057 | 33.77497 | 25802 ft | 400 kts | 304° |
| 2026-05-07 11:14 | 32.31673 | 33.74811 | 26204 ft | 402 kts | 304° |
| 2026-05-07 11:15 | 32.33299 | 33.72105 | 26598 ft | 404 kts | 304° |
| 2026-05-07 11:15 | 32.34388 | 33.70290 | 26839 ft | 406 kts | 304° |
| 2026-05-07 11:15 | 32.35598 | 33.68271 | 27090 ft | 407 kts | 304° |
| 2026-05-07 11:15 | 32.37239 | 33.65528 | 27450 ft | 409 kts | 303° |
| 2026-05-07 11:16 | 32.38887 | 33.62773 | 27823 ft | 411 kts | 303° |
| 2026-05-07 11:16 | 32.40542 | 33.60007 | 28177 ft | 413 kts | 303° |
| 2026-05-07 11:16 | 32.42204 | 33.57227 | 28535 ft | 415 kts | 303° |
| 2026-05-07 11:16 | 32.43871 | 33.54433 | 28890 ft | 416 kts | 303° |
| 2026-05-07 11:17 | 32.45543 | 33.51628 | 29229 ft | 418 kts | 303° |
| 2026-05-07 11:17 | 32.47225 | 33.48809 | 29551 ft | 420 kts | 303° |
| 2026-05-07 11:17 | 32.48912 | 33.45976 | 29876 ft | 422 kts | 303° |
| 2026-05-07 11:17 | 32.50605 | 33.43129 | 30214 ft | 423 kts | 303° |
| 2026-05-07 11:18 | 32.52302 | 33.40271 | 30535 ft | 425 kts | 303° |
| 2026-05-07 11:18 | 32.54008 | 33.37399 | 30831 ft | 427 kts | 303° |
| 2026-05-07 11:18 | 32.55717 | 33.34520 | 31204 ft | 427 kts | 303° |
| 2026-05-07 11:18 | 32.57422 | 33.31649 | 31633 ft | 425 kts | 303° |
| 2026-05-07 11:19 | 32.59121 | 33.28788 | 32057 ft | 424 kts | 303° |
| 2026-05-07 11:19 | 32.60813 | 33.25934 | 32488 ft | 422 kts | 303° |
| 2026-05-07 11:19 | 32.62498 | 33.23089 | 32899 ft | 421 kts | 303° |
| 2026-05-07 11:19 | 32.64181 | 33.20254 | 33292 ft | 420 kts | 303° |
| 2026-05-07 11:20 | 32.65858 | 33.17426 | 33698 ft | 418 kts | 303° |
| 2026-05-07 11:20 | 32.67527 | 33.14602 | 34087 ft | 417 kts | 303° |
| 2026-05-07 11:20 | 32.69189 | 33.11787 | 34457 ft | 416 kts | 303° |
| 2026-05-07 11:20 | 32.70847 | 33.08975 | 34806 ft | 415 kts | 303° |
| 2026-05-07 11:21 | 32.72503 | 33.06166 | 35127 ft | 415 kts | 302° |
| 2026-05-07 11:21 | 32.74154 | 33.03362 | 35427 ft | 414 kts | 302° |
| 2026-05-07 11:21 | 32.75803 | 33.00555 | 35722 ft | 414 kts | 302° |
| 2026-05-07 11:21 | 32.77450 | 32.97746 | 36009 ft | 414 kts | 302° |
| 2026-05-07 11:22 | 32.80751 | 32.92119 | 36149 ft | 415 kts | 303° |
| 2026-05-07 11:22 | 32.84059 | 32.86490 | 36145 ft | 415 kts | 302° |
| 2026-05-07 11:23 | 32.87364 | 32.80869 | 36146 ft | 414 kts | 302° |
| 2026-05-07 11:23 | 32.90662 | 32.75247 | 36148 ft | 414 kts | 302° |
| 2026-05-07 11:24 | 32.93948 | 32.69615 | 36145 ft | 414 kts | 302° |
| 2026-05-07 11:24 | 32.97229 | 32.63983 | 36149 ft | 414 kts | 302° |
| 2026-05-07 11:25 | 33.00508 | 32.58342 | 36155 ft | 414 kts | 302° |
| 2026-05-07 11:25 | 33.03791 | 32.52698 | 36159 ft | 414 kts | 302° |
| 2026-05-07 11:26 | 33.07046 | 32.47088 | 36163 ft | 414 kts | 302° |
| 2026-05-07 11:26 | 33.10319 | 32.41444 | 36160 ft | 414 kts | 302° |
| 2026-05-07 11:27 | 33.13586 | 32.35795 | 36159 ft | 414 kts | 302° |
| 2026-05-07 11:27 | 33.16851 | 32.30145 | 36160 ft | 413 kts | 302° |
| 2026-05-07 11:28 | 33.20112 | 32.24503 | 36158 ft | 412 kts | 302° |
| 2026-05-07 11:28 | 33.23362 | 32.18862 | 36166 ft | 412 kts | 302° |
| 2026-05-07 11:29 | 33.26607 | 32.13218 | 36170 ft | 412 kts | 302° |
| 2026-05-07 11:29 | 33.29852 | 32.07577 | 36172 ft | 411 kts | 302° |
| 2026-05-07 11:30 | 33.33090 | 32.01937 | 36173 ft | 411 kts | 302° |
| 2026-05-07 11:30 | 33.36319 | 31.96297 | 36176 ft | 411 kts | 302° |
| 2026-05-07 11:31 | 33.39534 | 31.90650 | 36173 ft | 410 kts | 302° |
| 2026-05-07 11:31 | 33.42747 | 31.85016 | 36176 ft | 409 kts | 302° |
| 2026-05-07 11:32 | 33.47563 | 31.76575 | 36176 ft | 409 kts | 302° |
| 2026-05-07 11:33 | 33.50770 | 31.70947 | 36172 ft | 409 kts | 302° |
| 2026-05-07 11:33 | 33.53967 | 31.65310 | 36175 ft | 409 kts | 302° |
| 2026-05-07 11:34 | 33.57165 | 31.59675 | 36174 ft | 409 kts | 302° |
| 2026-05-07 11:34 | 33.60363 | 31.54034 | 36174 ft | 409 kts | 302° |
| 2026-05-07 11:35 | 33.63547 | 31.48389 | 36170 ft | 408 kts | 302° |
| 2026-05-07 11:35 | 33.66731 | 31.42750 | 36175 ft | 408 kts | 302° |
| 2026-05-07 11:36 | 33.69923 | 31.37108 | 36171 ft | 409 kts | 302° |
| 2026-05-07 11:36 | 33.73079 | 31.31486 | 36165 ft | 408 kts | 302° |
| 2026-05-07 11:37 | 33.76259 | 31.25827 | 36161 ft | 409 kts | 302° |
| 2026-05-07 11:37 | 33.79433 | 31.20159 | 36159 ft | 409 kts | 302° |
| 2026-05-07 11:38 | 33.82612 | 31.14486 | 36157 ft | 409 kts | 302° |
| 2026-05-07 11:38 | 33.85791 | 31.08800 | 36159 ft | 410 kts | 302° |
| 2026-05-07 11:39 | 33.88965 | 31.03110 | 36160 ft | 409 kts | 302° |
| 2026-05-07 11:39 | 33.92137 | 30.97417 | 36162 ft | 409 kts | 302° |
| 2026-05-07 11:40 | 33.95306 | 30.91725 | 36161 ft | 409 kts | 302° |
| 2026-05-07 11:40 | 33.98473 | 30.86034 | 36161 ft | 409 kts | 302° |
| 2026-05-07 11:41 | 34.01631 | 30.80349 | 36161 ft | 408 kts | 302° |
| 2026-05-07 11:41 | 34.04775 | 30.74666 | 36163 ft | 407 kts | 302° |
| 2026-05-07 11:42 | 34.07910 | 30.69004 | 36159 ft | 405 kts | 302° |
| 2026-05-07 11:42 | 34.11029 | 30.63340 | 36159 ft | 405 kts | 302° |
| 2026-05-07 11:43 | 34.14127 | 30.57720 | 36158 ft | 405 kts | 302° |
| 2026-05-07 11:43 | 34.17247 | 30.52068 | 36159 ft | 404 kts | 302° |
| 2026-05-07 11:44 | 34.20360 | 30.46414 | 36158 ft | 404 kts | 302° |
| 2026-05-07 11:44 | 34.23465 | 30.40757 | 36155 ft | 404 kts | 302° |
| 2026-05-07 11:45 | 34.24355 | 30.39129 | 36156 ft | 404 kts | 302° |
| 2026-05-07 11:45 | 34.25458 | 30.37579 | 36464 ft | 392 kts | 314° |
| 2026-05-07 11:45 | 34.27241 | 30.35033 | 35961 ft | 397 kts | 304° |
| 2026-05-07 11:46 | 34.30263 | 30.29451 | 36052 ft | 399 kts | 300° |
| 2026-05-07 11:46 | 34.33235 | 30.23737 | 36139 ft | 402 kts | 302° |
| 2026-05-07 11:47 | 34.36279 | 30.18055 | 36143 ft | 402 kts | 300° |
| 2026-05-07 11:47 | 34.39145 | 30.12239 | 36137 ft | 402 kts | 300° |
| 2026-05-07 11:48 | 34.42107 | 30.06491 | 36134 ft | 403 kts | 302° |
| 2026-05-07 11:48 | 34.45224 | 30.00856 | 36129 ft | 403 kts | 308° |
| 2026-05-07 11:49 | 34.49352 | 29.96326 | 36146 ft | 406 kts | 318° |
| 2026-05-07 11:49 | 34.53690 | 29.91939 | 36153 ft | 406 kts | 318° |
| 2026-05-07 11:50 | 34.58038 | 29.87563 | 36158 ft | 406 kts | 318° |
| 2026-05-07 11:50 | 34.62381 | 29.83178 | 36163 ft | 406 kts | 318° |
| 2026-05-07 11:51 | 34.66710 | 29.78788 | 36162 ft | 405 kts | 318° |
| 2026-05-07 11:51 | 34.71040 | 29.74402 | 36161 ft | 405 kts | 318° |
| 2026-05-07 11:52 | 34.75363 | 29.70011 | 36158 ft | 404 kts | 318° |
| 2026-05-07 11:52 | 34.79671 | 29.65612 | 35784 ft | 404 kts | 318° |
| 2026-05-07 11:52 | 34.81817 | 29.63423 | 35406 ft | 401 kts | 318° |
| 2026-05-07 11:53 | 34.83949 | 29.61251 | 35005 ft | 398 kts | 318° |
| 2026-05-07 11:53 | 34.86065 | 29.59095 | 34666 ft | 396 kts | 318° |
| 2026-05-07 11:53 | 34.88171 | 29.56950 | 34285 ft | 393 kts | 317° |
| 2026-05-07 11:53 | 34.90259 | 29.54817 | 33891 ft | 390 kts | 317° |
| 2026-05-07 11:54 | 34.92335 | 29.52695 | 33385 ft | 389 kts | 317° |
| 2026-05-07 11:54 | 34.94400 | 29.50583 | 32883 ft | 386 kts | 317° |
| 2026-05-07 11:54 | 34.96452 | 29.48480 | 32401 ft | 385 kts | 317° |
| 2026-05-07 11:54 | 34.98483 | 29.46396 | 32142 ft | 378 kts | 318° |
| 2026-05-07 11:55 | 35.00470 | 29.44359 | 32130 ft | 379 kts | 318° |
| 2026-05-07 11:55 | 35.04505 | 29.40212 | 32136 ft | 379 kts | 317° |
| 2026-05-07 11:56 | 35.08542 | 29.36066 | 32140 ft | 379 kts | 318° |
| 2026-05-07 11:56 | 35.12570 | 29.31929 | 32136 ft | 379 kts | 318° |
| 2026-05-07 11:57 | 35.16596 | 29.27785 | 32136 ft | 378 kts | 318° |
| 2026-05-07 11:57 | 35.20623 | 29.23631 | 32136 ft | 378 kts | 318° |
| 2026-05-07 11:58 | 35.23989 | 29.20150 | 32133 ft | 378 kts | 318° |
| 2026-05-07 11:58 | 35.25969 | 29.18103 | 31668 ft | 377 kts | 318° |
| 2026-05-07 11:58 | 35.27964 | 29.16044 | 31256 ft | 373 kts | 318° |
| 2026-05-07 11:58 | 35.29935 | 29.14005 | 30846 ft | 370 kts | 318° |
| 2026-05-07 11:59 | 35.31891 | 29.11981 | 30450 ft | 367 kts | 318° |
| 2026-05-07 11:59 | 35.33845 | 29.09975 | 30052 ft | 366 kts | 318° |
| 2026-05-07 11:59 | 35.35786 | 29.07972 | 29649 ft | 364 kts | 318° |
| 2026-05-07 11:59 | 35.37677 | 29.06012 | 29241 ft | 363 kts | 318° |
| 2026-05-07 12:00 | 35.39595 | 29.04015 | 28815 ft | 361 kts | 318° |
| 2026-05-07 12:00 | 35.41502 | 29.02028 | 28447 ft | 358 kts | 318° |
| 2026-05-07 12:00 | 35.43393 | 29.00056 | 28094 ft | 356 kts | 318° |
| 2026-05-07 12:00 | 35.45286 | 28.98085 | 27615 ft | 357 kts | 318° |
| 2026-05-07 12:01 | 35.47179 | 28.96114 | 27140 ft | 357 kts | 319° |
| 2026-05-07 12:01 | 35.49072 | 28.94142 | 26658 ft | 357 kts | 319° |
| 2026-05-07 12:01 | 35.50967 | 28.92165 | 26240 ft | 356 kts | 319° |
| 2026-05-07 12:01 | 35.52834 | 28.90217 | 26121 ft | 347 kts | 319° |
| 2026-05-07 12:02 | 35.54657 | 28.88316 | 26145 ft | 344 kts | 319° |
| 2026-05-07 12:02 | 35.56479 | 28.86412 | 26146 ft | 344 kts | 319° |
| 2026-05-07 12:02 | 35.58300 | 28.84507 | 26154 ft | 344 kts | 319° |
| 2026-05-07 12:02 | 35.60123 | 28.82604 | 26156 ft | 344 kts | 319° |
| 2026-05-07 12:03 | 35.61946 | 28.80701 | 26156 ft | 344 kts | 319° |
| 2026-05-07 12:03 | 35.63767 | 28.78793 | 26155 ft | 344 kts | 318° |
| 2026-05-07 12:03 | 35.65584 | 28.76885 | 26154 ft | 343 kts | 318° |